Time;durP1;ratioP1;P1;durP2;ratioP2;P2;SDS_P1;SDS_P2;PMS_P1;PMS_P2;Temp;Humidity;BMP_temperature;BMP_pressure;BME280_temperature;BME280_humidity;BME280_pressure;Samples;Min_cycle;Max_cycle;Signal;HPM_P1;HPM_P2
2023/10/23 00:00:41;;;;;;;25.83;17.48;;;;;;;;;;5012072;28;20145;-84
2023/10/23 00:03:07;;;;;;;25.83;18.38;;;;;;;;;;5013233;28;20034;-84
2023/10/23 00:05:34;;;;;;;25.55;15.23;;;;;;;;;;4994771;28;20030;-83
2023/10/23 00:08:00;;;;;;;20.92;14.60;;;;;;;;;;5012321;28;20026;-83
2023/10/23 00:10:27;;;;;;;21.67;15.43;;;;;;;;;;5013284;28;20022;-83
2023/10/23 00:12:53;;;;;;;17.73;13.32;;;;;;;;;;4996820;28;20028;-83
2023/10/23 00:15:19;;;;;;;18.17;13.65;;;;;;;;;;4997766;28;20133;-83
2023/10/23 00:17:45;;;;;;;18.00;13.20;;;;;;;;;;5012672;28;20101;-85
2023/10/23 00:20:11;;;;;;;20.60;14.75;;;;;;;;;;5012034;28;20487;-85
2023/10/23 00:22:38;;;;;;;20.42;14.07;;;;;;;;;;5012188;28;20026;-85
2023/10/23 00:25:04;;;;;;;21.10;14.27;;;;;;;;;;5015307;28;20084;-85
2023/10/23 00:27:30;;;;;;;17.85;13.55;;;;;;;;;;5021304;28;20040;-85
2023/10/23 00:29:56;;;;;;;18.60;13.68;;;;;;;;;;5007911;28;20026;-84
2023/10/23 00:32:22;;;;;;;19.80;13.88;;;;;;;;;;5037229;28;20028;-84
2023/10/23 00:34:48;;;;;;;19.95;13.95;;;;;;;;;;5041083;28;20030;-85
2023/10/23 00:37:15;;;;;;;18.63;13.82;;;;;;;;;;5046654;28;20060;-85
2023/10/23 00:39:41;;;;;;;22.13;14.77;;;;;;;;;;5052585;28;20026;-85
2023/10/23 00:42:07;;;;;;;21.75;14.98;;;;;;;;;;5042580;28;20026;-85
2023/10/23 00:44:33;;;;;;;26.55;16.65;;;;;;;;;;5014044;28;20064;-86
2023/10/23 00:46:59;;;;;;;24.58;16.63;;;;;;;;;;5031810;28;20115;-84
2023/10/23 00:49:26;;;;;;;21.95;16.83;;;;;;;;;;5031905;28;20060;-84
2023/10/23 00:51:52;;;;;;;23.05;15.98;;;;;;;;;;5031705;28;20025;-84
2023/10/23 00:54:19;;;;;;;22.48;15.43;;;;;;;;;;5009712;28;20108;-85
2023/10/23 00:56:45;;;;;;;21.70;17.30;;;;;;;;;;5004763;28;20022;-84
2023/10/23 00:59:11;;;;;;;21.75;16.55;;;;;;;;;;5013548;28;20022;-84
2023/10/23 01:01:38;;;;;;;21.27;15.75;;;;;;;;;;5014027;28;20024;-84
2023/10/23 01:04:04;;;;;;;18.63;14.03;;;;;;;;;;5013486;28;20052;-84
2023/10/23 01:06:31;;;;;;;20.70;14.77;;;;;;;;;;5038066;28;20025;-84
2023/10/23 01:08:57;;;;;;;20.15;12.82;;;;;;;;;;5039100;28;20380;-84
2023/10/23 01:11:23;;;;;;;18.90;13.38;;;;;;;;;;5013644;28;20029;-83
2023/10/23 01:13:50;;;;;;;21.55;13.50;;;;;;;;;;5031290;28;20101;-83
2023/10/23 01:16:16;;;;;;;28.25;15.68;;;;;;;;;;5034949;28;20029;-81
2023/10/23 01:18:42;;;;;;;18.80;15.02;;;;;;;;;;5035062;28;20021;-84
2023/10/23 01:21:08;;;;;;;23.90;15.07;;;;;;;;;;5035083;28;20524;-84
2023/10/23 01:23:36;;;;;;;22.75;16.08;;;;;;;;;;5016878;28;20029;-84
2023/10/23 01:26:02;;;;;;;;;;;;;;;;;;5017947;28;20017;-83
2023/10/23 01:28:28;;;;;;;22.63;15.52;;;;;;;;;;5034745;28;19916;-83
2023/10/23 01:30:54;;;;;;;22.88;13.55;;;;;;;;;;5035644;28;20025;-83
2023/10/23 01:33:20;;;;;;;22.73;15.02;;;;;;;;;;5035622;28;20029;-83
2023/10/23 01:35:46;;;;;;;25.88;17.25;;;;;;;;;;5029923;28;20126;-83
2023/10/23 01:38:13;;;;;;;21.67;16.63;;;;;;;;;;5012955;28;20038;-83
2023/10/23 01:40:40;;;;;;;23.60;16.77;;;;;;;;;;5027776;28;20017;-83
2023/10/23 01:43:06;;;;;;;23.67;17.08;;;;;;;;;;5027178;28;20033;-84
2023/10/23 01:45:32;;;;;;;24.65;16.98;;;;;;;;;;5034243;28;20378;-83
2023/10/23 01:47:58;;;;;;;24.08;16.67;;;;;;;;;;5034145;28;20030;-83
2023/10/23 01:50:24;;;;;;;23.15;15.00;;;;;;;;;;5034219;28;20444;-83
2023/10/23 01:52:50;;;;;;;24.00;16.58;;;;;;;;;;5030359;28;20026;-83
2023/10/23 01:55:17;;;;;;;26.45;17.88;;;;;;;;;;5021823;28;20506;-83
2023/10/23 01:57:43;;;;;;;23.58;16.27;;;;;;;;;;5016173;28;20035;-83
2023/10/23 02:00:10;;;;;;;26.45;16.30;;;;;;;;;;5033931;28;20053;-83
2023/10/23 02:02:36;;;;;;;25.65;16.77;;;;;;;;;;5034281;28;20033;-82
2023/10/23 02:05:03;;;;;;;26.70;18.67;;;;;;;;;;5033972;28;20164;-83
2023/10/23 02:07:29;;;;;;;21.43;15.90;;;;;;;;;;5045077;28;20018;-82
2023/10/23 02:09:56;;;;;;;24.00;17.38;;;;;;;;;;5035283;28;20029;-83
2023/10/23 02:12:23;;;;;;;23.25;17.52;;;;;;;;;;5044248;28;20018;-83
2023/10/23 02:14:52;;;;;;;27.30;18.05;;;;;;;;;;5034862;28;20084;-83
2023/10/23 02:17:18;;;;;;;21.00;15.70;;;;;;;;;;5034126;28;20029;-84
2023/10/23 02:19:44;;;;;;;21.65;15.43;;;;;;;;;;5034291;28;20026;-83
2023/10/23 02:22:12;;;;;;;22.85;14.65;;;;;;;;;;5035019;28;20140;-82
2023/10/23 02:24:38;;;;;;;19.42;15.40;;;;;;;;;;5043854;28;20041;-82
2023/10/23 02:27:04;;;;;;;21.75;15.55;;;;;;;;;;5039210;28;20032;-84
2023/10/23 02:29:30;;;;;;;23.10;15.23;;;;;;;;;;5034054;28;20025;-82
2023/10/23 02:31:56;;;;;;;22.52;16.33;;;;;;;;;;5034305;28;20386;-84
2023/10/23 02:34:23;;;;;;;25.05;17.50;;;;;;;;;;5046736;28;20072;-84
2023/10/23 02:36:49;;;;;;;24.83;16.70;;;;;;;;;;5033775;28;20539;-83
2023/10/23 02:39:15;;;;;;;26.48;17.58;;;;;;;;;;5033577;28;20395;-84
2023/10/23 02:41:41;;;;;;;26.45;17.33;;;;;;;;;;5020952;28;20029;-84
2023/10/23 02:44:08;;;;;;;27.20;16.55;;;;;;;;;;5012645;28;20038;-84
2023/10/23 02:46:35;;;;;;;24.50;16.40;;;;;;;;;;5015540;28;20071;-83
2023/10/23 02:49:02;;;;;;;24.38;17.80;;;;;;;;;;5033031;28;20022;-83
2023/10/23 02:51:28;;;;;;;25.15;17.92;;;;;;;;;;5029607;28;20034;-84
2023/10/23 02:53:55;;;;;;;29.88;18.33;;;;;;;;;;5026104;28;20483;-83
2023/10/23 02:56:21;;;;;;;24.33;16.98;;;;;;;;;;5012629;28;20017;-84
2023/10/23 02:58:47;;;;;;;26.83;18.33;;;;;;;;;;5024255;28;20111;-85
2023/10/23 03:01:14;;;;;;;26.00;18.25;;;;;;;;;;5032821;28;20017;-85
2023/10/23 03:03:40;;;;;;;24.85;16.45;;;;;;;;;;5033108;28;20036;-85
2023/10/23 03:06:06;;;;;;;29.20;18.75;;;;;;;;;;5015396;28;20418;-83
2023/10/23 03:08:32;;;;;;;29.25;18.70;;;;;;;;;;5033382;28;20067;-83
2023/10/23 03:10:58;;;;;;;27.35;16.88;;;;;;;;;;5021177;28;20092;-83
2023/10/23 03:13:24;;;;;;;25.05;17.55;;;;;;;;;;5020966;28;20421;-84
2023/10/23 03:15:50;;;;;;;27.02;17.55;;;;;;;;;;5044433;28;20053;-84
2023/10/23 03:18:16;;;;;;;21.48;15.93;;;;;;;;;;5045072;28;20367;-83
2023/10/23 03:20:42;;;;;;;19.45;14.18;;;;;;;;;;5037921;28;20032;-83
2023/10/23 03:23:09;;;;;;;18.23;14.52;;;;;;;;;;5021424;28;20021;-84
2023/10/23 03:25:35;;;;;;;21.85;14.70;;;;;;;;;;5032653;28;20025;-85
2023/10/23 03:28:01;;;;;;;18.70;14.40;;;;;;;;;;5025678;28;20431;-84
2023/10/23 03:30:27;;;;;;;15.85;13.02;;;;;;;;;;5032512;28;20475;-84
2023/10/23 03:32:53;;;;;;;17.38;12.95;;;;;;;;;;5032472;28;20037;-84
2023/10/23 03:35:19;;;;;;;18.05;12.43;;;;;;;;;;5046298;28;20025;-83
2023/10/23 03:37:46;;;;;;;15.93;14.00;;;;;;;;;;5031970;28;20025;-84
2023/10/23 03:40:13;;;;;;;17.88;12.95;;;;;;;;;;5032388;28;20033;-84
2023/10/23 03:42:39;;;;;;;15.23;11.65;;;;;;;;;;5033093;28;20030;-83
2023/10/23 03:45:05;;;;;;;17.88;12.35;;;;;;;;;;5041782;28;20037;-84
2023/10/23 03:47:32;;;;;;;15.70;11.70;;;;;;;;;;5039445;28;20025;-84
2023/10/23 03:49:58;;;;;;;14.98;11.13;;;;;;;;;;5032832;28;20807;-84
2023/10/23 03:52:24;;;;;;;15.50;11.15;;;;;;;;;;5010498;28;20366;-83
2023/10/23 03:54:50;;;;;;;14.98;11.57;;;;;;;;;;5033051;28;20021;-83
2023/10/23 03:57:16;;;;;;;16.25;11.65;;;;;;;;;;5032327;28;20391;-83
2023/10/23 03:59:43;;;;;;;16.83;12.13;;;;;;;;;;5014812;28;20546;-83
2023/10/23 04:02:09;;;;;;;18.33;12.23;;;;;;;;;;5032540;28;20022;-84
2023/10/23 04:04:35;;;;;;;23.02;12.02;;;;;;;;;;5032407;28;20033;-84
2023/10/23 04:07:01;;;;;;;21.40;13.40;;;;;;;;;;5014807;28;20463;-84
2023/10/23 04:09:31;;;;;;;23.38;13.63;;;;;;;;;;5039383;28;20071;-83
2023/10/23 04:11:57;;;;;;;20.63;13.57;;;;;;;;;;5054176;28;20001;-84
2023/10/23 04:14:23;;;;;;;24.67;14.82;;;;;;;;;;5037091;28;20069;-84
2023/10/23 04:16:49;;;;;;;21.55;14.88;;;;;;;;;;5009119;28;20014;-83
2023/10/23 04:19:16;;;;;;;25.88;16.10;;;;;;;;;;5025440;28;20419;-83
2023/10/23 04:21:42;;;;;;;23.88;15.52;;;;;;;;;;5017394;28;20018;-83
2023/10/23 04:24:12;;;;;;;26.15;15.55;;;;;;;;;;5016453;28;20037;-83
2023/10/23 04:26:38;;;;;;;30.73;16.33;;;;;;;;;;5014079;28;20117;-84
2023/10/23 04:29:04;;;;;;;29.70;17.85;;;;;;;;;;5031970;28;20521;-83
2023/10/23 04:31:31;;;;;;;29.83;18.08;;;;;;;;;;5031904;28;20025;-84
2023/10/23 04:33:57;;;;;;;28.90;17.13;;;;;;;;;;5016208;28;20479;-84
2023/10/23 04:36:23;;;;;;;30.17;16.23;;;;;;;;;;5023849;28;20041;-84
2023/10/23 04:38:49;;;;;;;24.98;17.10;;;;;;;;;;5014212;28;20029;-84
2023/10/23 04:41:15;;;;;;;27.92;16.92;;;;;;;;;;5032535;28;20495;-85
2023/10/23 04:43:41;;;;;;;33.92;17.45;;;;;;;;;;5003804;28;20041;-84
2023/10/23 04:46:07;;;;;;;31.58;17.67;;;;;;;;;;5012770;28;20033;-84
2023/10/23 04:48:33;;;;;;;30.63;18.00;;;;;;;;;;5011608;28;20061;-83
2023/10/23 04:51:00;;;;;;;31.90;19.65;;;;;;;;;;5014481;28;20026;-84
2023/10/23 04:53:26;;;;;;;31.48;19.02;;;;;;;;;;5033775;28;20025;-84
2023/10/23 04:55:54;;;;;;;37.22;20.13;;;;;;;;;;5034127;28;20060;-84
2023/10/23 04:58:20;;;;;;;30.70;19.02;;;;;;;;;;5017513;28;20436;-84
2023/10/23 05:00:46;;;;;;;39.90;20.80;;;;;;;;;;5017735;28;20079;-83
2023/10/23 05:03:12;;;;;;;36.47;20.77;;;;;;;;;;5035625;28;20034;-83
2023/10/23 05:05:45;;;;;;;39.65;21.88;;;;;;;;;;5035673;28;20145;-85
2023/10/23 05:08:11;;;;;;;35.65;21.65;;;;;;;;;;5017550;28;20382;-83
2023/10/23 05:10:37;;;;;;;40.92;22.58;;;;;;;;;;5035841;28;20037;-85
2023/10/23 05:13:04;;;;;;;40.65;21.70;;;;;;;;;;5018097;28;20514;-86
2023/10/23 05:15:31;;;;;;;42.15;22.85;;;;;;;;;;5040855;28;20050;-84
2023/10/23 05:17:57;;;;;;;52.13;24.95;;;;;;;;;;5048900;28;20022;-84
2023/10/23 05:20:26;;;;;;;40.88;24.77;;;;;;;;;;5035221;28;20327;-85
2023/10/23 05:22:52;;;;;;;45.72;25.00;;;;;;;;;;5034724;28;20030;-84
2023/10/23 05:25:18;;;;;;;50.28;26.73;;;;;;;;;;5034472;28;20033;-82
2023/10/23 05:27:44;;;;;;;69.20;29.00;;;;;;;;;;5027987;28;20071;-83
2023/10/23 05:30:10;;;;;;;51.60;24.88;;;;;;;;;;5018981;28;20021;-84
2023/10/23 05:32:37;;;;;;;53.50;27.05;;;;;;;;;;5017516;28;20117;-83
2023/10/23 05:35:04;;;;;;;47.63;26.27;;;;;;;;;;4997452;28;20161;-84
2023/10/23 05:37:30;;;;;;;63.22;27.90;;;;;;;;;;5015140;28;20088;-84
2023/10/23 05:39:56;;;;;;;61.03;29.00;;;;;;;;;;5014953;28;20116;-83
2023/10/23 05:42:23;;;;;;;73.10;28.77;;;;;;;;;;4997753;28;20120;-82
2023/10/23 05:44:49;;;;;;;69.07;27.70;;;;;;;;;;5017238;28;20128;-84
2023/10/23 05:47:15;;;;;;;62.10;29.13;;;;;;;;;;5037723;28;20018;-84
2023/10/23 05:49:41;;;;;;;57.47;28.75;;;;;;;;;;5048738;28;20029;-83
2023/10/23 05:52:09;;;;;;;67.32;28.58;;;;;;;;;;5035242;28;20098;-84
2023/10/23 05:54:35;;;;;;;65.45;28.50;;;;;;;;;;5003779;28;20050;-84
2023/10/23 05:57:02;;;;;;;61.08;29.52;;;;;;;;;;5019329;28;20017;-84
2023/10/23 05:59:28;;;;;;;57.85;28.38;;;;;;;;;;5047044;28;20351;-83
2023/10/23 06:01:54;;;;;;;68.75;32.88;;;;;;;;;;5016650;28;20032;-83
2023/10/23 06:04:20;;;;;;;59.42;29.00;;;;;;;;;;5034605;28;20079;-83
2023/10/23 06:06:47;;;;;;;64.57;29.40;;;;;;;;;;5030281;28;20025;-84
2023/10/23 06:09:13;;;;;;;76.63;31.83;;;;;;;;;;5034251;28;20124;-82
2023/10/23 06:11:39;;;;;;;68.25;31.92;;;;;;;;;;5007999;28;20021;-83
2023/10/23 06:14:05;;;;;;;74.32;40.80;;;;;;;;;;4997452;28;20052;-83
2023/10/23 06:16:31;;;;;;;106.80;61.08;;;;;;;;;;5024103;28;20395;-83
2023/10/23 06:18:57;;;;;;;138.18;96.65;;;;;;;;;;5009609;28;20505;-83
2023/10/23 06:21:24;;;;;;;79.32;39.13;;;;;;;;;;5015040;28;20024;-83
2023/10/23 06:23:50;;;;;;;57.45;29.25;;;;;;;;;;5014567;28;20022;-83
2023/10/23 06:26:16;;;;;;;59.65;27.77;;;;;;;;;;5019908;28;20091;-83
2023/10/23 06:28:42;;;;;;;266.65;83.43;;;;;;;;;;4998259;28;20056;-82
2023/10/23 06:31:09;;;;;;;54.60;26.80;;;;;;;;;;4996644;28;20041;-82
2023/10/23 06:33:36;;;;;;;79.90;45.47;;;;;;;;;;5013858;28;20031;-85
2023/10/23 06:36:07;;;;;;;53.08;26.80;;;;;;;;;;4996616;28;20480;-85
2023/10/23 06:38:33;;;;;;;49.75;26.80;;;;;;;;;;5014207;28;20041;-84
2023/10/23 06:41:06;;;;;;;44.45;23.20;;;;;;;;;;4998954;28;20021;-85
2023/10/23 06:43:33;;;;;;;89.07;57.65;;;;;;;;;;5009886;28;20167;-84
2023/10/23 06:45:59;;;;;;;56.72;33.08;;;;;;;;;;5022229;28;20064;-82
2023/10/23 06:48:25;;;;;;;47.97;23.73;;;;;;;;;;5020348;28;20132;-83
2023/10/23 06:50:51;;;;;;;48.10;25.52;;;;;;;;;;5012180;28;20532;-83
2023/10/23 06:53:18;;;;;;;43.38;23.73;;;;;;;;;;5002934;28;20033;-85
2023/10/23 06:55:51;;;;;;;49.90;25.45;;;;;;;;;;5002222;28;20339;-84
2023/10/23 06:58:19;;;;;;;52.28;33.60;;;;;;;;;;5014070;28;20084;-85
2023/10/23 07:00:45;;;;;;;45.30;27.50;;;;;;;;;;5010163;28;20445;-84
2023/10/23 07:03:11;;;;;;;44.72;26.05;;;;;;;;;;5013852;28;20495;-83
2023/10/23 07:05:38;;;;;;;66.72;35.72;;;;;;;;;;5026298;28;20021;-84
2023/10/23 07:08:04;;;;;;;46.67;27.23;;;;;;;;;;5005706;28;20026;-82
2023/10/23 07:10:33;;;;;;;40.60;24.15;;;;;;;;;;5021943;28;20029;-83
2023/10/23 07:13:00;;;;;;;38.58;23.75;;;;;;;;;;5017930;28;20022;-85
2023/10/23 07:15:26;;;;;;;35.28;21.63;;;;;;;;;;5002334;28;20259;-85
2023/10/23 07:17:52;;;;;;;35.92;22.15;;;;;;;;;;5005399;28;20053;-83
2023/10/23 07:20:18;;;;;;;35.03;20.13;;;;;;;;;;5004665;28;20029;-82
2023/10/23 07:22:44;;;;;;;71.60;51.92;;;;;;;;;;5032061;28;20024;-82
2023/10/23 07:25:11;;;;;;;55.25;35.58;;;;;;;;;;5016172;28;20037;-85
2023/10/23 07:27:39;;;;;;;37.20;17.90;;;;;;;;;;5007008;28;20017;-83
2023/10/23 07:30:05;;;;;;;26.20;15.15;;;;;;;;;;5026036;28;20566;-83
2023/10/23 07:32:34;;;;;;;35.92;19.42;;;;;;;;;;5025015;28;20024;-84
2023/10/23 07:35:00;;;;;;;29.02;17.13;;;;;;;;;;5029213;28;20021;-82
2023/10/23 07:37:27;;;;;;;28.55;18.08;;;;;;;;;;5023971;28;20029;-82
2023/10/23 07:39:53;;;;;;;31.30;19.23;;;;;;;;;;5032415;28;20030;-84
2023/10/23 07:42:19;;;;;;;26.40;17.42;;;;;;;;;;5018363;28;20030;-86
2023/10/23 07:44:45;;;;;;;38.15;18.90;;;;;;;;;;5023055;28;20014;-86
2023/10/23 07:47:12;;;;;;;30.27;17.40;;;;;;;;;;5030320;28;20025;-84
2023/10/23 07:49:38;;;;;;;28.57;17.40;;;;;;;;;;5017619;28;20017;-84
2023/10/23 07:52:05;;;;;;;31.02;16.08;;;;;;;;;;5000226;28;20490;-86
2023/10/23 07:54:31;;;;;;;28.90;16.35;;;;;;;;;;5003048;28;20376;-86
2023/10/23 07:56:57;;;;;;;36.63;17.65;;;;;;;;;;5012208;28;20030;-85
2023/10/23 07:59:25;;;;;;;29.17;17.00;;;;;;;;;;5018955;28;20068;-85
2023/10/23 08:01:52;;;;;;;31.73;17.95;;;;;;;;;;5020907;28;20064;-84
2023/10/23 08:04:18;;;;;;;31.48;18.25;;;;;;;;;;5030927;28;20037;-85
2023/10/23 08:06:45;;;;;;;26.95;16.80;;;;;;;;;;5002475;28;20515;-86
2023/10/23 08:09:11;;;;;;;30.25;17.83;;;;;;;;;;5013083;28;20030;-86
2023/10/23 08:11:38;;;;;;;34.47;18.13;;;;;;;;;;5002607;28;20103;-85
2023/10/23 08:14:04;;;;;;;28.83;16.27;;;;;;;;;;5010267;28;20406;-84
2023/10/23 08:16:30;;;;;;;27.02;16.55;;;;;;;;;;5025494;28;20074;-85
2023/10/23 08:18:57;;;;;;;30.42;14.88;;;;;;;;;;5036045;28;20037;-84
2023/10/23 08:21:25;;;;;;;27.83;16.30;;;;;;;;;;5021839;28;20069;-85
2023/10/23 08:23:56;;;;;;;29.15;17.10;;;;;;;;;;5030446;28;20026;-86
2023/10/23 08:26:23;;;;;;;24.77;16.60;;;;;;;;;;5017402;28;20057;-88
2023/10/23 08:28:49;;;;;;;25.27;17.10;;;;;;;;;;5020856;28;20021;-87
2023/10/23 08:31:16;;;;;;;28.35;17.25;;;;;;;;;;5027503;28;20043;-86
2023/10/23 08:33:42;;;;;;;28.15;16.40;;;;;;;;;;5023259;28;20057;-84
2023/10/23 08:36:08;;;;;;;36.97;21.40;;;;;;;;;;5028260;28;20033;-83
2023/10/23 08:38:35;;;;;;;28.52;19.85;;;;;;;;;;5015573;28;20021;-83
2023/10/23 08:41:03;;;;;;;30.00;19.45;;;;;;;;;;5040632;28;20017;-84
2023/10/23 08:43:29;;;;;;;31.35;19.73;;;;;;;;;;5031811;28;20033;-83
2023/10/23 08:45:58;;;;;;;25.63;17.63;;;;;;;;;;5011076;28;20107;-82
2023/10/23 08:48:24;;;;;;;27.38;17.85;;;;;;;;;;5044987;28;20050;-84
2023/10/23 08:50:51;;;;;;;27.10;17.98;;;;;;;;;;5004313;28;20103;-84
2023/10/23 08:53:18;;;;;;;29.85;18.88;;;;;;;;;;5025089;28;20022;-84
2023/10/23 08:55:45;;;;;;;28.52;18.35;;;;;;;;;;5035611;28;20088;-84
2023/10/23 08:58:14;;;;;;;26.80;18.27;;;;;;;;;;5019584;28;20076;-81
2023/10/23 09:00:40;;;;;;;25.05;17.05;;;;;;;;;;5019428;28;20513;-84
2023/10/23 09:03:10;;;;;;;29.63;19.27;;;;;;;;;;5016930;28;20064;-85
2023/10/23 09:05:36;;;;;;;29.65;20.15;;;;;;;;;;5032212;28;20036;-83
2023/10/23 09:08:02;;;;;;;29.42;20.95;;;;;;;;;;5029549;28;20053;-82
2023/10/23 09:10:28;;;;;;;32.17;20.50;;;;;;;;;;5014902;28;20026;-83
2023/10/23 09:12:57;;;;;;;34.85;21.92;;;;;;;;;;5013333;28;20026;-84
2023/10/23 09:15:24;;;;;;;32.60;20.52;;;;;;;;;;5030791;28;20068;-83
2023/10/23 09:17:51;;;;;;;32.78;20.33;;;;;;;;;;5011073;28;20018;-83
2023/10/23 09:20:23;;;;;;;31.20;20.17;;;;;;;;;;4998453;28;20514;-83
2023/10/23 09:22:50;;;;;;;30.60;20.35;;;;;;;;;;5017283;28;20036;-83
2023/10/23 09:25:17;;;;;;;33.30;20.50;;;;;;;;;;5016162;28;20441;-83
2023/10/23 09:27:43;;;;;;;29.60;20.58;;;;;;;;;;5008754;28;20507;-84
2023/10/23 09:30:10;;;;;;;34.60;21.73;;;;;;;;;;5014157;28;20061;-80
2023/10/23 09:32:37;;;;;;;34.95;21.23;;;;;;;;;;5001447;28;20025;-83
2023/10/23 09:35:03;;;;;;;31.08;20.23;;;;;;;;;;5026998;28;20112;-80
2023/10/23 09:37:30;;;;;;;26.85;20.63;;;;;;;;;;5027367;28;20021;-84
2023/10/23 09:40:08;;;;;;;32.42;21.10;;;;;;;;;;5034591;28;20013;-84
2023/10/23 09:42:34;;;;;;;34.35;24.08;;;;;;;;;;5026023;28;20092;-83
2023/10/23 09:45:04;;;;;;;33.75;23.65;;;;;;;;;;5037180;28;20525;-82
2023/10/23 09:47:31;;;;;;;29.25;21.08;;;;;;;;;;5019662;28;20014;-83
2023/10/23 09:49:58;;;;;;;32.73;22.23;;;;;;;;;;5013210;28;20024;-84
2023/10/23 09:52:25;;;;;;;31.50;21.85;;;;;;;;;;5036316;28;20018;-85
2023/10/23 09:54:55;;;;;;;29.30;21.85;;;;;;;;;;5031028;28;20124;-83
2023/10/23 09:57:23;;;;;;;36.78;24.98;;;;;;;;;;5002767;28;20030;-83
2023/10/23 09:59:53;;;;;;;34.97;22.75;;;;;;;;;;5020637;28;20021;-83
2023/10/23 10:02:21;;;;;;;33.88;22.63;;;;;;;;;;5023590;28;20018;-82
2023/10/23 10:04:50;;;;;;;38.58;24.90;;;;;;;;;;5023155;28;20179;-83
2023/10/23 10:07:23;;;;;;;37.50;24.77;;;;;;;;;;5002662;28;20022;-83
2023/10/23 10:09:50;;;;;;;34.05;23.23;;;;;;;;;;5026230;28;20080;-84
2023/10/23 10:12:17;;;;;;;33.33;23.23;;;;;;;;;;5031232;28;20025;-84
2023/10/23 10:14:44;;;;;;;39.63;28.60;;;;;;;;;;5026641;28;20046;-84
2023/10/23 10:17:10;;;;;;;37.35;26.88;;;;;;;;;;4998265;28;20026;-84
2023/10/23 10:19:38;;;;;;;44.42;31.60;;;;;;;;;;5018373;28;20373;-83
2023/10/23 10:22:22;;;;;;;45.03;31.65;;;;;;;;;;4999071;28;20045;-85
2023/10/23 10:24:49;;;;;;;42.72;32.25;;;;;;;;;;5020253;28;20041;-83
2023/10/23 10:27:16;;;;;;;53.72;34.35;;;;;;;;;;5017574;28;20070;-84
2023/10/23 10:29:42;;;;;;;46.22;32.72;;;;;;;;;;5022223;28;20353;-83
2023/10/23 10:32:10;;;;;;;52.33;32.80;;;;;;;;;;5020518;28;20018;-86
2023/10/23 10:34:48;;;;;;;49.13;33.50;;;;;;;;;;5017746;28;20338;-83
2023/10/23 10:37:15;;;;;;;54.33;33.05;;;;;;;;;;5019819;28;20030;-86
2023/10/23 10:39:48;;;;;;;51.40;35.38;;;;;;;;;;5023043;28;20022;-84
2023/10/23 10:42:17;;;;;;;54.78;35.42;;;;;;;;;;5004118;28;20030;-86
2023/10/23 10:44:53;;;;;;;55.63;37.38;;;;;;;;;;5020841;28;20037;-85
2023/10/23 10:47:19;;;;;;;55.65;35.97;;;;;;;;;;5017836;28;20022;-84
2023/10/23 10:49:46;;;;;;;59.58;36.78;;;;;;;;;;5015035;28;20060;-84
2023/10/23 10:52:30;;;;;;;53.03;35.63;;;;;;;;;;5015537;28;20029;-83
2023/10/23 10:54:56;;;;;;;55.35;35.35;;;;;;;;;;5016611;28;20021;-83
2023/10/23 10:57:22;;;;;;;56.75;39.08;;;;;;;;;;5001783;28;20511;-82
2023/10/23 10:59:54;;;;;;;55.38;36.65;;;;;;;;;;5016504;28;20026;-84
2023/10/23 11:02:20;;;;;;;53.50;35.28;;;;;;;;;;4997435;28;20025;-85
2023/10/23 11:04:47;;;;;;;61.03;38.58;;;;;;;;;;5015922;28;20391;-90
2023/10/23 11:07:14;;;;;;;58.17;38.67;;;;;;;;;;5016707;28;20030;-84
2023/10/23 11:09:41;;;;;;;58.13;37.30;;;;;;;;;;5019992;28;20400;-83
2023/10/23 11:12:07;;;;;;;54.92;34.15;;;;;;;;;;5024570;28;20025;-84
2023/10/23 11:14:33;;;;;;;52.17;34.20;;;;;;;;;;5008891;28;20102;-84
2023/10/23 11:17:00;;;;;;;52.00;34.63;;;;;;;;;;5006766;28;20442;-83
2023/10/23 11:19:26;;;;;;;62.63;36.83;;;;;;;;;;5032319;28;20022;-82
2023/10/23 11:22:06;;;;;;;60.67;37.15;;;;;;;;;;5002972;28;20052;-84
2023/10/23 11:24:32;;;;;;;62.13;37.42;;;;;;;;;;5003689;28;20503;-83
2023/10/23 11:26:58;;;;;;;53.92;34.97;;;;;;;;;;5016028;28;20030;-82
2023/10/23 11:29:24;;;;;;;46.22;31.38;;;;;;;;;;5024462;28;20386;-83
2023/10/23 11:31:52;;;;;;;48.63;31.45;;;;;;;;;;5005560;28;20022;-83
2023/10/23 11:34:18;;;;;;;51.65;31.85;;;;;;;;;;5026561;28;20107;-85
2023/10/23 11:36:49;;;;;;;57.25;34.13;;;;;;;;;;5004123;28;20025;-83
2023/10/23 11:39:18;;;;;;;60.70;38.90;;;;;;;;;;5024241;28;20017;-83
2023/10/23 11:41:53;;;;;;;71.45;41.40;;;;;;;;;;5027291;28;20108;-83
2023/10/23 11:44:20;;;;;;;62.15;39.38;;;;;;;;;;5017369;28;20041;-86
2023/10/23 11:46:47;;;;;;;62.20;41.47;;;;;;;;;;5008569;28;20026;-85
2023/10/23 11:49:14;;;;;;;72.38;43.40;;;;;;;;;;5023855;28;20025;-84
2023/10/23 11:51:40;;;;;;;72.18;41.03;;;;;;;;;;5012607;28;20022;-84
2023/10/23 11:54:06;;;;;;;65.63;44.45;;;;;;;;;;5020042;28;20030;-85
2023/10/23 11:56:32;;;;;;;66.97;39.55;;;;;;;;;;5015399;28;20045;-85
2023/10/23 11:59:00;;;;;;;60.25;38.25;;;;;;;;;;4995895;28;20057;-84
2023/10/23 12:01:26;;;;;;;57.33;36.72;;;;;;;;;;5020650;28;20028;-84
2023/10/23 12:03:52;;;;;;;62.20;37.65;;;;;;;;;;5013834;28;20037;-85
2023/10/23 12:06:18;;;;;;;61.35;37.65;;;;;;;;;;5021472;28;20035;-84
2023/10/23 12:08:44;;;;;;;57.25;37.63;;;;;;;;;;5025019;28;20049;-91
2023/10/23 12:11:10;;;;;;;64.80;38.83;;;;;;;;;;5002053;28;20053;-86
2023/10/23 12:13:36;;;;;;;58.17;36.42;;;;;;;;;;5016561;28;20053;-86
2023/10/23 12:16:04;;;;;;;51.75;34.80;;;;;;;;;;5015836;28;20132;-84
2023/10/23 12:18:30;;;;;;;53.58;33.53;;;;;;;;;;5017018;28;20053;-85
2023/10/23 12:20:56;;;;;;;53.33;34.00;;;;;;;;;;5018953;28;20026;-84
2023/10/23 12:23:22;;;;;;;53.67;37.42;;;;;;;;;;5002101;28;20034;-84
2023/10/23 12:25:48;;;;;;;57.60;36.35;;;;;;;;;;5017606;28;20403;-84
2023/10/23 12:28:14;;;;;;;56.65;35.25;;;;;;;;;;5020891;28;20033;-84
2023/10/23 12:30:40;;;;;;;60.33;36.40;;;;;;;;;;5019003;28;20384;-84
2023/10/23 12:33:06;;;;;;;50.17;34.70;;;;;;;;;;5017967;28;20068;-84
2023/10/23 12:35:32;;;;;;;49.95;33.70;;;;;;;;;;5019751;28;20108;-84
2023/10/23 12:37:58;;;;;;;48.95;34.10;;;;;;;;;;5009995;28;20493;-86
2023/10/23 12:40:25;;;;;;;48.53;33.17;;;;;;;;;;5001754;28;20151;-90
2023/10/23 12:42:51;;;;;;;62.38;36.53;;;;;;;;;;5012094;28;20025;-85
2023/10/23 12:45:17;;;;;;;58.13;37.50;;;;;;;;;;5023919;28;20486;-84
2023/10/23 12:47:43;;;;;;;61.55;38.83;;;;;;;;;;5013839;28;20483;-86
2023/10/23 12:50:10;;;;;;;61.80;39.35;;;;;;;;;;5025187;28;20446;-82
2023/10/23 12:52:36;;;;;;;94.70;46.97;;;;;;;;;;5031963;28;20028;-88
2023/10/23 12:55:04;;;;;;;66.07;41.30;;;;;;;;;;4999093;28;20026;-88
2023/10/23 12:57:31;;;;;;;72.82;42.03;;;;;;;;;;5040467;28;20079;-89
2023/10/23 12:59:57;;;;;;;75.20;40.88;;;;;;;;;;5014113;28;20128;-84
2023/10/23 13:02:23;;;;;;;66.00;41.28;;;;;;;;;;5020202;28;20387;-86
2023/10/23 13:04:50;;;;;;;62.88;42.47;;;;;;;;;;5011057;28;20026;-86
2023/10/23 13:07:16;;;;;;;64.22;42.08;;;;;;;;;;5030203;28;20018;-84
2023/10/23 13:09:42;;;;;;;54.47;37.88;;;;;;;;;;5022813;28;20034;-84
2023/10/23 13:12:08;;;;;;;57.92;38.58;;;;;;;;;;4999234;28;20033;-83
2023/10/23 13:14:34;;;;;;;58.08;39.58;;;;;;;;;;5019356;28;20080;-85
2023/10/23 13:17:00;;;;;;;58.83;36.75;;;;;;;;;;5030427;28;20022;-84
2023/10/23 13:19:27;;;;;;;57.45;39.28;;;;;;;;;;5028670;28;20432;-90
2023/10/23 13:21:53;;;;;;;56.95;38.05;;;;;;;;;;5020800;28;20033;-82
2023/10/23 13:24:20;;;;;;;55.25;39.38;;;;;;;;;;5017947;28;20073;-84
2023/10/23 13:26:46;;;;;;;53.10;36.92;;;;;;;;;;5021260;28;20054;-83
2023/10/23 13:29:12;;;;;;;56.05;38.03;;;;;;;;;;5017272;28;20604;-83
2023/10/23 13:31:38;;;;;;;51.08;36.38;;;;;;;;;;5019737;28;20153;-82
2023/10/23 13:34:04;;;;;;;50.10;34.88;;;;;;;;;;5023043;28;20513;-82
2023/10/23 13:36:30;;;;;;;50.13;32.92;;;;;;;;;;5014830;28;20018;-83
2023/10/23 13:38:56;;;;;;;49.95;34.45;;;;;;;;;;5022003;28;20072;-84
2023/10/23 13:41:23;;;;;;;56.17;32.45;;;;;;;;;;5028318;28;20468;-84
2023/10/23 13:43:49;;;;;;;58.28;32.15;;;;;;;;;;5030789;28;20045;-84
2023/10/23 13:46:15;;;;;;;70.90;32.15;;;;;;;;;;5028769;28;20105;-85
2023/10/23 13:48:41;;;;;;;67.03;30.27;;;;;;;;;;5010911;28;20033;-84
2023/10/23 13:51:09;;;;;;;38.80;25.48;;;;;;;;;;5035700;28;20018;-84
2023/10/23 13:53:35;;;;;;;44.25;27.63;;;;;;;;;;5026428;28;20044;-85
2023/10/23 13:56:01;;;;;;;34.90;24.08;;;;;;;;;;5023948;28;20032;-84
2023/10/23 13:58:28;;;;;;;32.40;22.50;;;;;;;;;;5038184;28;20032;-86
2023/10/23 14:00:54;;;;;;;27.98;21.13;;;;;;;;;;5020014;28;20064;-87
2023/10/23 14:03:20;;;;;;;28.55;19.90;;;;;;;;;;5041075;28;20395;-85
2023/10/23 14:05:46;;;;;;;33.53;19.33;;;;;;;;;;5031820;28;20053;-85
2023/10/23 14:08:12;;;;;;;24.42;17.00;;;;;;;;;;5036406;28;20057;-83
2023/10/23 14:10:39;;;;;;;20.00;14.35;;;;;;;;;;5021055;28;20037;-85
2023/10/23 14:13:06;;;;;;;19.40;13.77;;;;;;;;;;5041757;28;20116;-86